createdAt,value
2018-12-30T00:02:44.698Z,28.77
2018-12-30T00:05:40.363Z,28.02
2018-12-30T00:08:36.686Z,25.63
2018-12-30T00:11:33.532Z,27.40
2018-12-30T00:14:30.450Z,24.83
2018-12-30T00:17:26.222Z,25.23
2018-12-30T00:20:23.402Z,23.10
2018-12-30T00:23:18.995Z,25.20
2018-12-30T00:26:15.949Z,23.10
2018-12-30T00:29:13.792Z,26.97
2018-12-30T00:32:09.721Z,21.70
2018-12-30T00:35:05.611Z,20.50
2018-12-30T00:38:01.704Z,23.13
2018-12-30T00:40:58.294Z,20.13
2018-12-30T00:43:54.169Z,20.43
2018-12-30T00:46:51.918Z,21.77
2018-12-30T00:49:47.720Z,22.03
2018-12-30T00:52:45.401Z,18.90
2018-12-30T00:55:41.609Z,20.00
2018-12-30T00:58:37.408Z,20.07
2018-12-30T01:01:35.080Z,21.93
2018-12-30T01:04:31.405Z,19.73
2018-12-30T01:07:28.282Z,18.17
2018-12-30T01:10:25.744Z,17.83
2018-12-30T01:13:22.184Z,21.63
2018-12-30T01:16:17.770Z,18.57
2018-12-30T01:19:15.512Z,19.32
2018-12-30T01:22:11.299Z,16.90
2018-12-30T01:25:07.285Z,19.70
2018-12-30T01:28:03.088Z,16.53
2018-12-30T01:30:58.884Z,14.80
2018-12-30T01:33:56.809Z,17.73
2018-12-30T01:36:53.620Z,17.67
2018-12-30T01:39:51.198Z,16.43
2018-12-30T01:42:46.711Z,16.50
2018-12-30T01:45:43.047Z,16.07
2018-12-30T01:48:40.948Z,15.50
2018-12-30T01:51:37.824Z,14.83
2018-12-30T01:54:34.514Z,16.32
2018-12-30T01:57:30.114Z,14.90
2018-12-30T02:00:26.675Z,15.67
2018-12-30T02:03:23.498Z,17.30
2018-12-30T02:06:20.362Z,17.53
2018-12-30T02:09:15.885Z,13.70
2018-12-30T02:12:12.334Z,13.90
2018-12-30T02:15:08.008Z,15.00
2018-12-30T02:18:04.606Z,16.23
2018-12-30T02:21:03.074Z,15.40
2018-12-30T02:23:58.884Z,16.80
2018-12-30T02:26:55.680Z,14.87
2018-12-30T02:29:51.234Z,15.23
2018-12-30T02:32:48.046Z,16.83
2018-12-30T02:35:43.821Z,16.70
2018-12-30T02:38:40.701Z,16.73
2018-12-30T02:41:38.259Z,15.33
2018-12-30T02:44:33.734Z,16.10
2018-12-30T02:47:31.324Z,17.30
2018-12-30T02:50:26.864Z,17.40
2018-12-30T02:53:24.519Z,17.60
2018-12-30T02:56:19.946Z,16.73
2018-12-30T02:59:16.395Z,17.50
2018-12-30T03:02:11.612Z,16.60
2018-12-30T03:05:07.799Z,15.80
2018-12-30T03:08:03.756Z,18.23
2018-12-30T03:11:00.289Z,17.37
2018-12-30T03:13:57.189Z,17.67
2018-12-30T03:16:52.720Z,18.03
2018-12-30T03:19:48.690Z,26.95
2018-12-30T03:22:44.145Z,19.17
2018-12-30T03:25:41.013Z,20.65
2018-12-30T03:28:36.945Z,24.87
2018-12-30T03:31:32.939Z,26.50
2018-12-30T03:34:29.609Z,22.80
2018-12-30T03:37:25.137Z,20.90
2018-12-30T03:40:24.130Z,18.10
2018-12-30T03:43:20.983Z,19.10
2018-12-30T03:46:17.788Z,18.10
2018-12-30T03:49:14.150Z,18.75
2018-12-30T03:52:12.030Z,16.43
2018-12-30T03:55:07.649Z,20.63
2018-12-30T03:58:03.061Z,18.53
2018-12-30T04:00:58.743Z,21.47
2018-12-30T04:03:55.323Z,16.97
2018-12-30T04:06:50.872Z,21.50
2018-12-30T04:09:46.693Z,17.80
2018-12-30T04:12:44.289Z,18.87
2018-12-30T04:15:39.936Z,18.07
2018-12-30T04:18:36.278Z,16.57
2018-12-30T04:21:32.090Z,17.43
2018-12-30T04:24:28.911Z,18.03
2018-12-30T04:27:24.651Z,19.77
2018-12-30T04:30:22.498Z,16.77
2018-12-30T04:33:18.234Z,16.87
2018-12-30T04:36:14.979Z,19.70
2018-12-30T04:39:10.466Z,18.60
2018-12-30T04:42:07.356Z,18.83
2018-12-30T04:45:03.380Z,21.20
2018-12-30T04:47:59.994Z,18.53
2018-12-30T04:50:57.765Z,17.50
2018-12-30T04:53:53.336Z,20.82
2018-12-30T04:56:49.349Z,20.10
2018-12-30T04:59:44.714Z,17.80
2018-12-30T05:02:42.281Z,17.57
2018-12-30T05:05:37.928Z,17.87
2018-12-30T05:08:33.638Z,18.10
2018-12-30T05:11:29.126Z,17.30
2018-12-30T05:14:26.786Z,16.27
2018-12-30T05:17:22.512Z,18.07
2018-12-30T05:20:19.180Z,15.57
2018-12-30T05:23:16.976Z,16.40
2018-12-30T05:26:12.554Z,14.30
2018-12-30T05:29:08.703Z,16.77
2018-12-30T05:32:04.797Z,14.27
2018-12-30T05:35:01.579Z,14.40
2018-12-30T05:37:57.088Z,15.20
2018-12-30T05:40:53.900Z,13.80
2018-12-30T05:43:53.028Z,13.43
2018-12-30T05:46:49.657Z,14.90
2018-12-30T05:49:47.614Z,14.43
2018-12-30T05:52:44.142Z,17.00
2018-12-30T05:55:40.911Z,13.20
2018-12-30T05:58:35.942Z,12.27
2018-12-30T06:01:37.518Z,12.70
2018-12-30T06:04:33.573Z,11.97
2018-12-30T06:07:30.317Z,12.73
2018-12-30T06:10:25.933Z,11.03
2018-12-30T06:13:22.707Z,12.73
2018-12-30T06:16:19.061Z,10.18
2018-12-30T06:19:14.459Z,9.88
2018-12-30T06:22:10.971Z,10.60
2018-12-30T06:25:07.433Z,8.87
2018-12-30T06:28:03.987Z,10.60
2018-12-30T06:31:00.789Z,13.00
2018-12-30T06:33:57.841Z,10.17
2018-12-30T06:36:54.635Z,10.70
2018-12-30T06:39:50.094Z,8.77
2018-12-30T06:42:46.735Z,9.37
2018-12-30T06:45:43.368Z,11.83
2018-12-30T06:48:41.711Z,10.90
2018-12-30T06:51:36.505Z,9.20
2018-12-30T06:54:33.225Z,10.00
2018-12-30T06:57:28.813Z,9.80
2018-12-30T07:00:25.389Z,9.50
2018-12-30T07:03:24.007Z,9.73
2018-12-30T07:06:19.626Z,10.48
2018-12-30T07:09:16.025Z,8.00
2018-12-30T07:12:11.541Z,8.23
2018-12-30T07:15:09.835Z,8.30
2018-12-30T07:18:04.855Z,9.87
2018-12-30T07:21:01.433Z,8.20
2018-12-30T07:23:59.031Z,8.43
2018-12-30T07:26:58.462Z,8.07
2018-12-30T07:29:55.067Z,7.03
2018-12-30T07:32:51.730Z,9.47
2018-12-30T07:35:48.555Z,8.87
2018-12-30T07:38:43.980Z,7.33
2018-12-30T07:41:40.526Z,7.53
2018-12-30T07:44:37.304Z,8.35
2018-12-30T07:47:33.636Z,8.47
2018-12-30T07:50:33.008Z,11.80
2018-12-30T07:53:29.784Z,8.37
2018-12-30T07:56:26.628Z,7.83
2018-12-30T07:59:22.256Z,10.80
2018-12-30T08:02:18.866Z,9.78
2018-12-30T08:05:15.472Z,10.50
2018-12-30T08:08:12.250Z,9.97
2018-12-30T08:11:07.557Z,10.27
2018-12-30T08:14:03.818Z,11.10
2018-12-30T08:17:01.568Z,12.37
2018-12-30T08:20:03.830Z,12.67
2018-12-30T08:22:59.635Z,12.90
2018-12-30T08:25:57.627Z,9.80
2018-12-30T08:28:54.271Z,13.07
2018-12-30T08:31:50.577Z,12.20
2018-12-30T08:34:47.987Z,14.50
2018-12-30T08:37:43.626Z,13.35
2018-12-30T08:40:40.398Z,11.70
2018-12-30T08:43:37.029Z,12.53
2018-12-30T08:46:32.582Z,13.97
2018-12-30T08:49:30.159Z,15.83
2018-12-30T08:52:28.303Z,11.20
2018-12-30T08:55:25.866Z,18.07
2018-12-30T08:58:21.391Z,18.27
2018-12-30T09:01:18.260Z,16.50
2018-12-30T09:04:13.983Z,15.40
2018-12-30T09:07:14.811Z,9.37
2018-12-30T09:10:12.991Z,15.13
2018-12-30T09:13:08.861Z,13.37
2018-12-30T09:16:06.474Z,13.50
2018-12-30T09:19:02.255Z,15.63
2018-12-30T09:21:58.937Z,18.30
2018-12-30T09:24:56.670Z,15.63
2018-12-30T09:27:53.523Z,9.98
2018-12-30T09:30:49.010Z,13.77
2018-12-30T09:33:45.593Z,12.30
2018-12-30T09:36:40.446Z,15.43
2018-12-30T09:39:36.433Z,18.03
2018-12-30T09:42:32.015Z,21.17
2018-12-30T09:45:29.728Z,12.60
2018-12-30T09:48:33.613Z,11.70
2018-12-30T09:51:24.551Z,11.40
2018-12-30T09:54:22.646Z,15.20
2018-12-30T09:57:19.537Z,15.90
2018-12-30T10:00:16.422Z,20.05
2018-12-30T10:03:12.885Z,16.20
2018-12-30T10:06:10.756Z,15.90
2018-12-30T10:09:06.840Z,18.97
2018-12-30T10:12:03.215Z,13.03
2018-12-30T10:15:08.914Z,13.13
2018-12-30T10:17:55.785Z,12.70
2018-12-30T10:20:52.572Z,11.53
2018-12-30T10:23:52.985Z,14.33
2018-12-30T10:26:47.833Z,18.03
2018-12-30T10:29:43.814Z,10.50
2018-12-30T10:32:40.894Z,10.47
2018-12-30T10:35:37.177Z,16.27
2018-12-30T10:38:32.822Z,14.03
2018-12-30T10:41:29.347Z,13.43
2018-12-30T10:44:24.840Z,16.10
2018-12-30T10:47:22.464Z,10.20
2018-12-30T10:50:18.844Z,14.47
2018-12-30T10:53:16.423Z,13.40
2018-12-30T10:56:14.883Z,9.57
2018-12-30T10:59:11.341Z,12.23
2018-12-30T11:02:07.442Z,11.17
2018-12-30T11:05:02.991Z,9.10
2018-12-30T11:08:01.130Z,13.03
2018-12-30T11:10:56.720Z,12.30
2018-12-30T11:13:54.578Z,18.17
2018-12-30T11:16:51.280Z,14.18
2018-12-30T11:19:48.154Z,11.70
2018-12-30T11:22:43.991Z,13.17
2018-12-30T11:25:42.340Z,11.95
2018-12-30T11:28:38.697Z,12.03
2018-12-30T11:31:34.514Z,12.20
2018-12-30T11:34:31.782Z,13.70
2018-12-30T11:37:28.500Z,15.30
2018-12-30T11:40:25.723Z,10.83
2018-12-30T11:43:21.430Z,8.63
2018-12-30T11:46:18.190Z,14.43
2018-12-30T11:49:15.416Z,14.53
2018-12-30T11:52:11.885Z,14.80
2018-12-30T11:55:07.983Z,11.80
2018-12-30T11:58:06.741Z,12.27
2018-12-30T12:01:03.638Z,14.83
2018-12-30T12:03:59.416Z,11.47
2018-12-30T12:06:56.971Z,9.83
2018-12-30T12:09:52.774Z,10.47
2018-12-30T12:12:50.283Z,9.30
2018-12-30T12:15:47.018Z,10.68
2018-12-30T12:18:43.040Z,12.23
2018-12-30T12:21:39.358Z,12.00
2018-12-30T12:24:34.998Z,10.20
2018-12-30T12:27:32.633Z,11.90
2018-12-30T12:30:28.657Z,15.47
2018-12-30T12:33:25.313Z,13.43
2018-12-30T12:36:21.007Z,13.40
2018-12-30T12:39:18.355Z,10.53
2018-12-30T12:42:14.937Z,13.63
2018-12-30T12:45:10.633Z,12.33
2018-12-30T12:48:08.534Z,18.93
2018-12-30T12:51:04.014Z,9.57
2018-12-30T12:54:00.809Z,12.50
2018-12-30T12:56:58.412Z,9.87
2018-12-30T12:59:55.384Z,13.38
2018-12-30T13:02:52.332Z,11.75
2018-12-30T13:05:48.112Z,13.27
2018-12-30T13:08:44.844Z,10.77
2018-12-30T13:11:41.751Z,12.80
2018-12-30T13:14:38.712Z,11.43
2018-12-30T13:17:34.317Z,10.70
2018-12-30T13:20:32.286Z,13.17
2018-12-30T13:23:28.067Z,12.83
2018-12-30T13:26:25.645Z,13.60
2018-12-30T13:29:23.135Z,10.47
2018-12-30T13:32:18.889Z,10.88
2018-12-30T13:35:15.687Z,9.47
2018-12-30T13:38:11.200Z,11.80
2018-12-30T13:41:08.434Z,13.23
2018-12-30T13:44:05.383Z,11.50
2018-12-30T13:47:02.029Z,17.47
2018-12-30T13:49:59.301Z,17.23
2018-12-30T13:52:55.021Z,13.30
2018-12-30T13:55:52.306Z,12.60
2018-12-30T13:58:49.111Z,15.23
2018-12-30T14:01:48.655Z,10.77
2018-12-30T14:04:45.578Z,13.57
2018-12-30T14:07:41.536Z,10.32
2018-12-30T14:10:39.277Z,13.33
2018-12-30T14:13:35.470Z,17.50
2018-12-30T14:16:32.227Z,10.53
2018-12-30T14:19:29.266Z,10.25
2018-12-30T14:22:25.965Z,10.77
2018-12-30T14:25:22.638Z,14.13
2018-12-30T14:28:17.581Z,16.83
2018-12-30T14:31:15.258Z,14.70
2018-12-30T14:34:10.876Z,10.27
2018-12-30T14:37:07.684Z,12.77
2018-12-30T14:40:05.203Z,14.67
2018-12-30T14:43:01.989Z,9.67
2018-12-30T14:46:01.812Z,15.50
2018-12-30T14:48:58.387Z,12.67
2018-12-30T14:51:55.669Z,11.33
2018-12-30T14:54:51.183Z,8.55
2018-12-30T14:57:48.160Z,12.03
2018-12-30T15:00:47.755Z,11.63
2018-12-30T15:03:44.098Z,13.47
2018-12-30T15:06:40.177Z,13.00
2018-12-30T15:09:36.776Z,8.93
2018-12-30T15:12:33.693Z,13.00
2018-12-30T15:15:29.494Z,11.37
2018-12-30T15:18:26.348Z,9.33
2018-12-30T15:21:24.081Z,15.08
2018-12-30T15:24:20.844Z,14.70
2018-12-30T15:27:16.625Z,14.00
2018-12-30T15:30:14.453Z,10.73
2018-12-30T15:33:09.535Z,11.93
2018-12-30T15:36:06.276Z,15.63
2018-12-30T15:39:03.270Z,20.70
2018-12-30T15:42:02.786Z,16.60
2018-12-30T15:45:00.760Z,16.17
2018-12-30T15:47:56.785Z,14.17
2018-12-30T15:50:55.497Z,12.80
2018-12-30T15:53:52.227Z,13.50
2018-12-30T15:56:49.650Z,13.60
2018-12-30T15:59:46.645Z,13.27
2018-12-30T16:02:44.136Z,13.93
2018-12-30T16:05:41.867Z,10.27
2018-12-30T16:08:37.900Z,10.47
2018-12-30T16:11:35.807Z,15.07
2018-12-30T16:14:31.762Z,14.03
2018-12-30T16:17:26.086Z,15.87
2018-12-30T16:20:23.105Z,15.40
2018-12-30T16:23:19.998Z,10.25
2018-12-30T16:26:16.301Z,16.90
2018-12-30T16:29:11.247Z,11.80
2018-12-30T16:32:08.994Z,12.37
2018-12-30T16:35:04.750Z,13.77
2018-12-30T16:38:01.479Z,10.33
2018-12-30T16:40:57.172Z,10.53
2018-12-30T16:43:53.966Z,10.70
2018-12-30T16:46:49.182Z,22.20
2018-12-30T16:49:45.282Z,12.80
2018-12-30T16:52:42.234Z,9.80
2018-12-30T16:55:38.057Z,16.40
2018-12-30T16:58:35.156Z,11.23
2018-12-30T17:01:33.288Z,13.77
2018-12-30T17:04:30.116Z,16.65
2018-12-30T17:07:27.621Z,14.60
2018-12-30T17:10:24.298Z,11.17
2018-12-30T17:13:20.244Z,11.40
2018-12-30T17:16:17.774Z,12.93
2018-12-30T17:19:13.899Z,11.45
2018-12-30T17:22:11.980Z,15.08
2018-12-30T17:25:07.767Z,10.80
2018-12-30T17:28:04.169Z,13.27
2018-12-30T17:31:00.849Z,11.97
2018-12-30T17:33:57.559Z,11.53
2018-12-30T17:36:53.955Z,12.10
2018-12-30T17:39:49.082Z,11.05
2018-12-30T17:42:46.156Z,12.10
2018-12-30T17:45:41.275Z,16.90
2018-12-30T17:48:38.160Z,10.63
2018-12-30T17:51:34.948Z,14.27
2018-12-30T17:54:32.056Z,13.97
2018-12-30T17:57:27.999Z,12.67
2018-12-30T18:00:24.908Z,12.33
2018-12-30T18:03:21.841Z,8.83
2018-12-30T18:06:18.762Z,14.33
2018-12-30T18:09:15.456Z,13.78
2018-12-30T18:12:11.802Z,11.60
2018-12-30T18:15:07.761Z,8.47
2018-12-30T18:18:04.607Z,14.85
2018-12-30T18:21:02.666Z,11.00
2018-12-30T18:23:59.757Z,13.03
2018-12-30T18:26:56.588Z,11.60
2018-12-30T18:29:56.204Z,10.45
2018-12-30T18:32:53.292Z,14.50
2018-12-30T18:35:49.091Z,12.43
2018-12-30T18:38:46.704Z,25.43
2018-12-30T18:41:42.924Z,8.73
2018-12-30T18:44:38.938Z,14.57
2018-12-30T18:47:36.878Z,12.28
2018-12-30T18:50:32.655Z,9.80
2018-12-30T18:53:30.410Z,14.47
2018-12-30T18:56:27.006Z,18.60
2018-12-30T18:59:22.922Z,13.50
2018-12-30T19:02:20.058Z,12.70
2018-12-30T19:05:14.940Z,14.30
2018-12-30T19:08:10.739Z,8.63
2018-12-30T19:11:08.553Z,13.07
2018-12-30T19:14:05.368Z,10.07
2018-12-30T19:17:11.776Z,7.70
2018-12-30T19:20:07.723Z,8.23
2018-12-30T19:23:04.579Z,12.97
2018-12-30T19:26:01.105Z,16.40
2018-12-30T19:28:59.124Z,10.25
2018-12-30T19:31:55.293Z,11.00
2018-12-30T19:34:52.957Z,14.40
2018-12-30T19:37:48.642Z,9.67
2018-12-30T19:40:46.219Z,12.50
2018-12-30T19:43:43.782Z,13.03
2018-12-30T19:46:40.424Z,14.10
2018-12-30T19:49:37.311Z,18.53
2018-12-30T19:52:32.971Z,12.13
2018-12-30T19:55:30.529Z,10.40
2018-12-30T19:58:29.049Z,10.73
2018-12-30T20:01:26.067Z,9.13
2018-12-30T20:04:23.306Z,17.00
2018-12-30T20:07:19.196Z,11.30
2018-12-30T20:10:16.400Z,13.22
2018-12-30T20:13:29.282Z,11.30
2018-12-30T20:16:26.874Z,9.70
2018-12-30T20:19:22.785Z,15.23
2018-12-30T20:22:19.101Z,11.37
2018-12-30T20:25:19.104Z,11.15
2018-12-30T20:28:15.621Z,9.75
2018-12-30T20:31:12.200Z,7.53
2018-12-30T20:34:08.233Z,13.03
2018-12-30T20:37:05.070Z,11.30
2018-12-30T20:40:00.982Z,11.47
2018-12-30T20:43:03.951Z,18.37
2018-12-30T20:45:59.617Z,10.87
2018-12-30T20:48:57.340Z,16.80
2018-12-30T20:51:58.096Z,11.97
2018-12-30T20:54:59.235Z,8.90
2018-12-30T20:57:56.592Z,11.20
2018-12-30T21:00:52.555Z,12.03
2018-12-30T21:03:48.993Z,11.85
2018-12-30T21:06:44.141Z,8.90
2018-12-30T21:09:40.904Z,10.23
2018-12-30T21:12:38.029Z,7.80
2018-12-30T21:15:36.624Z,13.43
2018-12-30T21:18:33.419Z,14.87
2018-12-30T21:21:32.822Z,12.00
2018-12-30T21:24:30.645Z,11.17
2018-12-30T21:27:26.205Z,10.60
2018-12-30T21:30:24.119Z,9.57
2018-12-30T21:33:19.694Z,10.77
2018-12-30T21:36:15.403Z,14.57
2018-12-30T21:39:11.891Z,11.57
2018-12-30T21:42:11.622Z,15.40
2018-12-30T21:45:08.172Z,14.57
2018-12-30T21:48:04.668Z,11.67
2018-12-30T21:51:01.248Z,11.33
2018-12-30T21:53:56.829Z,9.17
2018-12-30T21:56:55.119Z,10.53
2018-12-30T21:59:50.885Z,12.47
2018-12-30T22:02:46.595Z,10.20
2018-12-30T22:05:44.218Z,12.77
2018-12-30T22:08:40.785Z,10.00
2018-12-30T22:11:40.171Z,11.67
2018-12-30T22:14:38.889Z,10.03
2018-12-30T22:17:34.675Z,15.15
2018-12-30T22:20:32.805Z,13.80
2018-12-30T22:23:28.554Z,13.48
2018-12-30T22:26:28.031Z,9.90
2018-12-30T22:29:26.613Z,12.33
2018-12-30T22:32:24.306Z,18.87
2018-12-30T22:35:20.755Z,19.60
2018-12-30T22:38:18.671Z,19.10
2018-12-30T22:41:15.961Z,11.77
2018-12-30T22:44:13.248Z,14.73
2018-12-30T22:47:11.489Z,13.40
2018-12-30T22:50:09.415Z,11.60
2018-12-30T22:53:06.386Z,11.73
2018-12-30T22:56:02.428Z,12.80
2018-12-30T22:58:59.425Z,10.63
2018-12-30T23:01:56.334Z,9.30
2018-12-30T23:04:55.104Z,15.30
2018-12-30T23:07:51.636Z,11.87
2018-12-30T23:10:48.493Z,11.12
2018-12-30T23:13:44.495Z,9.13
2018-12-30T23:16:42.366Z,14.77
2018-12-30T23:19:39.537Z,13.13
2018-12-30T23:22:39.576Z,10.40
2018-12-30T23:25:38.205Z,15.30
2018-12-30T23:28:37.612Z,12.25
2018-12-30T23:31:35.977Z,12.40
2018-12-30T23:34:31.706Z,11.70
2018-12-30T23:37:29.007Z,11.73
2018-12-30T23:40:25.585Z,8.80
2018-12-30T23:43:23.123Z,12.50
2018-12-30T23:46:18.997Z,10.23
2018-12-30T23:49:16.879Z,13.17
2018-12-30T23:52:14.267Z,8.73
2018-12-30T23:55:11.358Z,17.37
2018-12-30T23:58:10.251Z,11.93
